MUGM/NBW METAR and TAF weather

Enter ICAO airport designator
Station Type Date Time Source
MUGM METAR 2024/07/13 02:51 UTC NOAA

MUGM 130251Z 02004KT 10SM FEW030 SCT250 29/27 A3009 RMK AO2 SLP189 T02940267 51012 $


Station Type Date Time Source
MUGM Decoded METAR 2024/07/13 02:51 UTC NOAA

GUANTANAMO BAY, CUBA NAVAL, CU, Cuba (MUGM) 19-55N 075-12W 23M
Jul 12, 2024 - 10:51 PM EDT / 2024.07.13 0251 UTC
Wind: from the NNE (020 degrees) at 5 MPH (4 KT):0
Visibility: 10 mile(s):0
Sky conditions: partly cloudy
Temperature: 84.9 F (29.4 C)
Dew Point: 80.1 F (26.7 C)
Relative Humidity: 85%
Pressure (altimeter): 30.09 in. Hg (1018 hPa)
Pressure tendency: 0.04 inches (1.2 hPa) higher than three hours ago
ob: MUGM 130251Z 02004KT 10SM FEW030 SCT250 29/27 A3009 RMK AO2 SLP189 T02940267 51012
cycle: 3

Station Type Date Time Source
MUGM TAF 2024/07/12 23:58 UTC NOAA